sensor_id;sensor_type;location;lat;lon;timestamp;pressure;altitude;pressure_sealevel;temperature;humidity
3780;BME280;1905;52.482;9.802;2023-04-21T00:01:00;101333.09;;;9.68;71.42
3780;BME280;1905;52.482;9.802;2023-04-21T00:03:29;101326.94;;;9.68;71.09
3780;BME280;1905;52.482;9.802;2023-04-21T00:05:59;101322.53;;;9.68;71.34
3780;BME280;1905;52.482;9.802;2023-04-21T00:08:27;101313.88;;;9.65;70.86
3780;BME280;1905;52.482;9.802;2023-04-21T00:10:54;101320.94;;;9.63;71.30
3780;BME280;1905;52.482;9.802;2023-04-21T00:13:24;101319.19;;;9.63;71.29
3780;BME280;1905;52.482;9.802;2023-04-21T00:15:51;101322.69;;;9.64;71.68
3780;BME280;1905;52.482;9.802;2023-04-21T00:18:19;101320.91;;;9.64;71.32
3780;BME280;1905;52.482;9.802;2023-04-21T00:20:47;101318.31;;;9.63;70.45
3780;BME280;1905;52.482;9.802;2023-04-21T00:23:14;101316.63;;;9.60;71.18
3780;BME280;1905;52.482;9.802;2023-04-21T00:25:42;101314.06;;;9.57;71.16
3780;BME280;1905;52.482;9.802;2023-04-21T00:28:09;101303.53;;;9.57;71.10
3780;BME280;1905;52.482;9.802;2023-04-21T00:30:38;101315.91;;;9.55;70.28
3780;BME280;1905;52.482;9.802;2023-04-21T00:33:06;101303.63;;;9.54;70.40
3780;BME280;1905;52.482;9.802;2023-04-21T00:35:33;101304.53;;;9.53;71.07
3780;BME280;1905;52.482;9.802;2023-04-21T00:38:01;101308.06;;;9.52;71.22
3780;BME280;1905;52.482;9.802;2023-04-21T00:40:28;101302.00;;;9.50;71.08
3780;BME280;1905;52.482;9.802;2023-04-21T00:42:56;101306.47;;;9.46;70.80
3780;BME280;1905;52.482;9.802;2023-04-21T00:45:24;101302.06;;;9.47;70.86
3780;BME280;1905;52.482;9.802;2023-04-21T00:47:53;101301.28;;;9.43;71.21
3780;BME280;1905;52.482;9.802;2023-04-21T00:50:20;101293.44;;;9.42;71.87
3780;BME280;1905;52.482;9.802;2023-04-21T00:52:48;101285.63;;;9.39;71.42
3780;BME280;1905;52.482;9.802;2023-04-21T00:55:16;101284.81;;;9.37;71.01
3780;BME280;1905;52.482;9.802;2023-04-21T00:57:43;101281.25;;;9.38;71.23
3780;BME280;1905;52.482;9.802;2023-04-21T01:00:12;101282.34;;;9.31;71.57
3780;BME280;1905;52.482;9.802;2023-04-21T01:02:40;101275.25;;;9.33;71.42
3780;BME280;1905;52.482;9.802;2023-04-21T01:05:10;101274.44;;;9.31;72.42
3780;BME280;1905;52.482;9.802;2023-04-21T01:07:38;101271.75;;;9.32;71.82
3780;BME280;1905;52.482;9.802;2023-04-21T01:10:06;101271.88;;;9.29;71.05
3780;BME280;1905;52.482;9.802;2023-04-21T01:12:41;101273.63;;;9.29;70.56
3780;BME280;1905;52.482;9.802;2023-04-21T01:15:09;101270.34;;;9.21;72.17
3780;BME280;1905;52.482;9.802;2023-04-21T01:17:37;101273.78;;;9.23;72.42
3780;BME280;1905;52.482;9.802;2023-04-21T01:20:10;101265.81;;;9.26;71.70
3780;BME280;1905;52.482;9.802;2023-04-21T01:22:41;101265.00;;;9.24;71.66
3780;BME280;1905;52.482;9.802;2023-04-21T01:25:10;101262.34;;;9.24;71.82
3780;BME280;1905;52.482;9.802;2023-04-21T01:27:37;101265.03;;;9.22;72.10
3780;BME280;1905;52.482;9.802;2023-04-21T01:30:06;101258.88;;;9.22;72.57
3780;BME280;1905;52.482;9.802;2023-04-21T01:32:34;101263.31;;;9.21;71.82
3780;BME280;1905;52.482;9.802;2023-04-21T01:35:02;101261.59;;;9.19;72.34
3780;BME280;1905;52.482;9.802;2023-04-21T01:37:31;101266.78;;;9.22;71.64
3780;BME280;1905;52.482;9.802;2023-04-21T01:40:02;101258.97;;;9.19;72.84
3780;BME280;1905;52.482;9.802;2023-04-21T01:42:33;101262.53;;;9.18;75.64
3780;BME280;1905;52.482;9.802;2023-04-21T01:45:01;101272.97;;;9.21;74.17
3780;BME280;1905;52.482;9.802;2023-04-21T01:47:29;101255.34;;;9.23;74.64
3780;BME280;1905;52.482;9.802;2023-04-21T01:49:56;101256.38;;;9.17;73.20
3780;BME280;1905;52.482;9.802;2023-04-21T01:52:24;101258.06;;;9.20;73.35
3780;BME280;1905;52.482;9.802;2023-04-21T01:54:52;101257.19;;;9.21;73.85
3780;BME280;1905;52.482;9.802;2023-04-21T01:57:22;101265.16;;;9.18;75.02
3780;BME280;1905;52.482;9.802;2023-04-21T01:59:50;101256.31;;;9.19;73.94
3780;BME280;1905;52.482;9.802;2023-04-21T02:02:18;101261.72;;;9.16;74.73
3780;BME280;1905;52.482;9.802;2023-04-21T02:04:46;101257.25;;;9.18;73.31
3780;BME280;1905;52.482;9.802;2023-04-21T02:07:14;101258.13;;;9.18;75.10
3780;BME280;1905;52.482;9.802;2023-04-21T02:09:41;101249.38;;;9.16;74.45
3780;BME280;1905;52.482;9.802;2023-04-21T02:12:09;101252.94;;;9.15;73.36
3780;BME280;1905;52.482;9.802;2023-04-21T02:14:42;101252.06;;;9.15;76.26
3780;BME280;1905;52.482;9.802;2023-04-21T02:17:11;101245.91;;;9.16;74.32
3780;BME280;1905;52.482;9.802;2023-04-21T02:19:39;101249.38;;;9.16;74.75
3780;BME280;1905;52.482;9.802;2023-04-21T02:22:07;101253.81;;;9.16;74.80
3780;BME280;1905;52.482;9.802;2023-04-21T02:24:36;101250.25;;;9.17;76.87
3780;BME280;1905;52.482;9.802;2023-04-21T02:27:03;101247.59;;;9.18;76.40
3780;BME280;1905;52.482;9.802;2023-04-21T02:29:31;101241.53;;;9.15;75.86
3780;BME280;1905;52.482;9.802;2023-04-21T02:32:00;101248.53;;;9.16;76.56
3780;BME280;1905;52.482;9.802;2023-04-21T02:34:47;101242.41;;;9.15;77.54
3780;BME280;1905;52.482;9.802;2023-04-21T02:37:14;101239.78;;;9.14;75.19
3780;BME280;1905;52.482;9.802;2023-04-21T02:39:43;101243.34;;;9.13;76.98
3780;BME280;1905;52.482;9.802;2023-04-21T02:42:11;101236.34;;;9.12;74.76
3780;BME280;1905;52.482;9.802;2023-04-21T02:44:39;101240.75;;;9.11;75.03
3780;BME280;1905;52.482;9.802;2023-04-21T02:47:09;101238.00;;;9.16;75.71
3780;BME280;1905;52.482;9.802;2023-04-21T02:49:39;101241.63;;;9.12;75.62
3780;BME280;1905;52.482;9.802;2023-04-21T02:52:07;101234.53;;;9.14;74.59
3780;BME280;1905;52.482;9.802;2023-04-21T02:54:35;101241.53;;;9.15;74.88
3780;BME280;1905;52.482;9.802;2023-04-21T02:57:02;101230.19;;;9.13;75.47
3780;BME280;1905;52.482;9.802;2023-04-21T02:59:31;101241.53;;;9.15;76.18
3780;BME280;1905;52.482;9.802;2023-04-21T03:01:59;101236.25;;;9.15;76.95
3780;BME280;1905;52.482;9.802;2023-04-21T03:04:28;101247.75;;;9.12;75.86
3780;BME280;1905;52.482;9.802;2023-04-21T03:06:57;101242.44;;;9.14;76.55
3780;BME280;1905;52.482;9.802;2023-04-21T03:09:25;101244.97;;;9.17;77.84
3780;BME280;1905;52.482;9.802;2023-04-21T03:11:52;101246.81;;;9.15;76.16
3780;BME280;1905;52.482;9.802;2023-04-21T03:14:20;101245.13;;;9.12;75.47
3780;BME280;1905;52.482;9.802;2023-04-21T03:16:47;101253.91;;;9.11;75.17
3780;BME280;1905;52.482;9.802;2023-04-21T03:19:15;101248.63;;;9.13;75.05
3780;BME280;1905;52.482;9.802;2023-04-21T03:21:44;101250.41;;;9.11;74.42
3780;BME280;1905;52.482;9.802;2023-04-21T03:24:12;101257.44;;;9.12;73.79
3780;BME280;1905;52.482;9.802;2023-04-21T03:26:41;101254.84;;;9.10;73.47
3780;BME280;1905;52.482;9.802;2023-04-21T03:29:08;101250.41;;;9.11;73.07
3780;BME280;1905;52.482;9.802;2023-04-21T03:31:36;101264.53;;;9.10;73.27
3780;BME280;1905;52.482;9.802;2023-04-21T03:34:03;101251.34;;;9.10;74.53
3780;BME280;1905;52.482;9.802;2023-04-21T03:36:31;101255.81;;;9.08;73.63
3780;BME280;1905;52.482;9.802;2023-04-21T03:39:00;101256.63;;;9.08;73.10
3780;BME280;1905;52.482;9.802;2023-04-21T03:41:46;101259.34;;;9.07;72.81
3780;BME280;1905;52.482;9.802;2023-04-21T03:44:14;101257.59;;;9.06;73.72
3780;BME280;1905;52.482;9.802;2023-04-21T03:46:41;101258.53;;;9.03;73.57
3780;BME280;1905;52.482;9.802;2023-04-21T03:49:09;101259.41;;;9.04;73.58
3780;BME280;1905;52.482;9.802;2023-04-21T03:51:37;101250.63;;;9.05;73.31
3780;BME280;1905;52.482;9.802;2023-04-21T03:54:05;101266.44;;;9.05;73.25
3780;BME280;1905;52.482;9.802;2023-04-21T03:56:33;101259.41;;;9.04;73.22
3780;BME280;1905;52.482;9.802;2023-04-21T03:59:01;101261.16;;;9.05;73.30
3780;BME280;1905;52.482;9.802;2023-04-21T04:01:29;101263.91;;;9.00;73.52
3780;BME280;1905;52.482;9.802;2023-04-21T04:03:56;101262.13;;;9.01;72.50
3780;BME280;1905;52.482;9.802;2023-04-21T04:06:24;101263.03;;;8.99;73.23
3780;BME280;1905;52.482;9.802;2023-04-21T04:08:52;101261.25;;;9.02;72.58
3780;BME280;1905;52.482;9.802;2023-04-21T04:11:21;101270.13;;;8.97;73.09
3780;BME280;1905;52.482;9.802;2023-04-21T04:13:48;101271.03;;;8.96;72.95
3780;BME280;1905;52.482;9.802;2023-04-21T04:16:16;101264.03;;;8.95;72.35
3780;BME280;1905;52.482;9.802;2023-04-21T04:18:43;101273.69;;;8.95;72.87
3780;BME280;1905;52.482;9.802;2023-04-21T04:21:11;101272.84;;;8.94;72.16
3780;BME280;1905;52.482;9.802;2023-04-21T04:23:39;101265.94;;;8.90;73.20
3780;BME280;1905;52.482;9.802;2023-04-21T04:26:06;101273.84;;;8.90;72.53
3780;BME280;1905;52.482;9.802;2023-04-21T04:28:36;101272.09;;;8.89;72.73
3780;BME280;1905;52.482;9.802;2023-04-21T04:31:03;101273.84;;;8.90;72.84
3780;BME280;1905;52.482;9.802;2023-04-21T04:33:31;101271.19;;;8.90;72.55
3780;BME280;1905;52.482;9.802;2023-04-21T04:35:59;101261.53;;;8.91;72.17
3780;BME280;1905;52.482;9.802;2023-04-21T04:38:27;101269.53;;;8.88;73.10
3780;BME280;1905;52.482;9.802;2023-04-21T04:40:55;101272.09;;;8.89;72.95
3780;BME280;1905;52.482;9.802;2023-04-21T04:43:24;101266.00;;;8.87;72.44
3780;BME280;1905;52.482;9.802;2023-04-21T04:45:53;101258.25;;;8.83;72.96
3780;BME280;1905;52.482;9.802;2023-04-21T04:48:20;101258.28;;;8.81;72.09
3780;BME280;1905;52.482;9.802;2023-04-21T04:50:48;101265.19;;;8.85;72.32
3780;BME280;1905;52.482;9.802;2023-04-21T04:53:16;101259.16;;;8.82;72.62
3780;BME280;1905;52.482;9.802;2023-04-21T04:55:43;101265.28;;;8.82;73.71
3780;BME280;1905;52.482;9.802;2023-04-21T04:58:11;101270.56;;;8.82;73.03
3780;BME280;1905;52.482;9.802;2023-04-21T05:00:39;101270.56;;;8.82;72.39
3780;BME280;1905;52.482;9.802;2023-04-21T05:03:07;101265.34;;;8.79;73.81
3780;BME280;1905;52.482;9.802;2023-04-21T05:05:35;101272.38;;;8.80;72.39
3780;BME280;1905;52.482;9.802;2023-04-21T05:08:03;101275.91;;;8.79;73.01
3780;BME280;1905;52.482;9.802;2023-04-21T05:10:31;101276.75;;;8.80;74.36
3780;BME280;1905;52.482;9.802;2023-04-21T05:12:59;101285.47;;;8.82;73.36
3780;BME280;1905;52.482;9.802;2023-04-21T05:15:26;101279.34;;;8.81;74.12
3780;BME280;1905;52.482;9.802;2023-04-21T05:17:54;101277.44;;;8.86;74.08
3780;BME280;1905;52.482;9.802;2023-04-21T05:20:23;101286.28;;;8.85;73.61
3780;BME280;1905;52.482;9.802;2023-04-21T05:22:51;101287.09;;;8.86;74.21
3780;BME280;1905;52.482;9.802;2023-04-21T05:25:19;101288.91;;;8.85;74.51
3780;BME280;1905;52.482;9.802;2023-04-21T05:27:46;101292.38;;;8.86;75.29
3780;BME280;1905;52.482;9.802;2023-04-21T05:30:14;101291.47;;;8.88;75.62
3780;BME280;1905;52.482;9.802;2023-04-21T05:32:41;101276.41;;;8.92;77.40
3780;BME280;1905;52.482;9.802;2023-04-21T05:35:09;101278.94;;;8.96;77.41
3780;BME280;1905;52.482;9.802;2023-04-21T05:37:38;101279.03;;;8.93;77.63
3780;BME280;1905;52.482;9.802;2023-04-21T05:40:06;101278.09;;;8.94;76.62
3780;BME280;1905;52.482;9.802;2023-04-21T05:42:33;101284.22;;;8.96;76.38
3780;BME280;1905;52.482;9.802;2023-04-21T05:45:01;101287.66;;;8.98;77.26
3780;BME280;1905;52.482;9.802;2023-04-21T05:47:29;101285.84;;;9.01;76.50
3780;BME280;1905;52.482;9.802;2023-04-21T05:49:56;101284.81;;;9.06;77.63
3780;BME280;1905;52.482;9.802;2023-04-21T05:52:24;101283.03;;;9.07;76.85
3780;BME280;1905;52.482;9.802;2023-04-21T05:54:53;101278.50;;;9.12;77.58
3780;BME280;1905;52.482;9.802;2023-04-21T05:57:20;101283.59;;;9.18;78.88
3780;BME280;1905;52.482;9.802;2023-04-21T05:59:48;101277.47;;;9.17;77.74
3780;BME280;1905;52.482;9.802;2023-04-21T06:02:15;101272.97;;;9.21;78.02
3780;BME280;1905;52.482;9.802;2023-04-21T06:04:43;101274.59;;;9.25;77.54
3780;BME280;1905;52.482;9.802;2023-04-21T06:07:11;101274.59;;;9.25;78.48
3780;BME280;1905;52.482;9.802;2023-04-21T06:09:39;101274.44;;;9.31;78.67
3780;BME280;1905;52.482;9.802;2023-04-21T06:12:08;101277.00;;;9.34;79.81
3780;BME280;1905;52.482;9.802;2023-04-21T06:14:36;101268.06;;;9.38;78.95
3780;BME280;1905;52.482;9.802;2023-04-21T06:17:03;101265.34;;;9.41;79.68
3780;BME280;1905;52.482;9.802;2023-04-21T06:19:35;101263.44;;;9.46;79.37
3780;BME280;1905;52.482;9.802;2023-04-21T06:22:03;101247.44;;;9.52;78.24
3780;BME280;1905;52.482;9.802;2023-04-21T06:24:31;101245.53;;;9.57;80.54
3780;BME280;1905;52.482;9.802;2023-04-21T06:26:58;101241.91;;;9.61;79.01
3780;BME280;1905;52.482;9.802;2023-04-21T06:29:28;101250.53;;;9.66;80.17
3780;BME280;1905;52.482;9.802;2023-04-21T06:31:55;101252.16;;;9.70;80.21
3780;BME280;1905;52.482;9.802;2023-04-21T06:34:23;101243.31;;;9.73;80.59
3780;BME280;1905;52.482;9.802;2023-04-21T06:36:50;101244.75;;;9.81;79.74
3780;BME280;1905;52.482;9.802;2023-04-21T06:39:18;101236.81;;;9.83;79.66
3780;BME280;1905;52.482;9.802;2023-04-21T06:41:45;101239.19;;;9.90;80.58
3780;BME280;1905;52.482;9.802;2023-04-21T06:44:13;101244.28;;;9.96;79.86
3780;BME280;1905;52.482;9.802;2023-04-21T06:46:42;101237.94;;;10.02;81.45
3780;BME280;1905;52.482;9.802;2023-04-21T06:49:09;101242.16;;;10.07;81.58
3780;BME280;1905;52.482;9.802;2023-04-21T06:51:37;101236.72;;;10.13;81.13
3780;BME280;1905;52.482;9.802;2023-04-21T06:54:05;101234.69;;;10.22;82.06
3780;BME280;1905;52.482;9.802;2023-04-21T06:56:32;101235.50;;;10.24;80.33
3780;BME280;1905;52.482;9.802;2023-04-21T06:59:00;101222.03;;;10.31;79.98
3780;BME280;1905;52.482;9.802;2023-04-21T07:01:28;101227.16;;;10.36;80.23
3780;BME280;1905;52.482;9.802;2023-04-21T07:03:56;101223.31;;;10.46;80.08
3780;BME280;1905;52.482;9.802;2023-04-21T07:06:25;101217.94;;;10.49;78.46
3780;BME280;1905;52.482;9.802;2023-04-21T07:08:53;101224.69;;;10.56;79.62
3780;BME280;1905;52.482;9.802;2023-04-21T07:11:20;101229.78;;;10.62;80.43
3780;BME280;1905;52.482;9.802;2023-04-21T07:13:48;101213.47;;;10.74;79.20
3780;BME280;1905;52.482;9.802;2023-04-21T07:16:15;101217.78;;;10.76;80.49
3780;BME280;1905;52.482;9.802;2023-04-21T07:18:43;101217.47;;;10.86;79.06
3780;BME280;1905;52.482;9.802;2023-04-21T07:21:11;101220.59;;;10.97;80.01
3780;BME280;1905;52.482;9.802;2023-04-21T07:23:39;101224.78;;;11.02;80.54
3780;BME280;1905;52.482;9.802;2023-04-21T07:26:06;101227.22;;;11.08;78.62
3780;BME280;1905;52.482;9.802;2023-04-21T07:28:34;101225.06;;;11.18;78.93
3780;BME280;1905;52.482;9.802;2023-04-21T07:31:01;101223.88;;;11.26;79.74
3780;BME280;1905;52.482;9.802;2023-04-21T07:33:29;101221.78;;;11.34;79.73
3780;BME280;1905;52.482;9.802;2023-04-21T07:35:57;101223.28;;;11.42;79.66
3780;BME280;1905;52.482;9.802;2023-04-21T07:38:26;101221.19;;;11.50;78.40
3780;BME280;1905;52.482;9.802;2023-04-21T07:40:53;101217.28;;;11.60;77.66
3780;BME280;1905;52.482;9.802;2023-04-21T07:43:21;101211.75;;;11.66;78.37
3780;BME280;1905;52.482;9.802;2023-04-21T07:45:49;101215.78;;;11.76;78.53
3780;BME280;1905;52.482;9.802;2023-04-21T07:48:17;101207.53;;;11.83;78.13
3780;BME280;1905;52.482;9.802;2023-04-21T07:50:45;101208.97;;;11.92;77.31
3780;BME280;1905;52.482;9.802;2023-04-21T07:53:12;101212.03;;;12.03;77.39
3780;BME280;1905;52.482;9.802;2023-04-21T07:55:41;101204.63;;;12.11;77.49
3780;BME280;1905;52.482;9.802;2023-04-21T07:58:09;101199.09;;;12.17;76.67
3780;BME280;1905;52.482;9.802;2023-04-21T08:00:36;101202.97;;;12.29;76.22
3780;BME280;1905;52.482;9.802;2023-04-21T08:03:04;101207.25;;;12.33;76.18
3780;BME280;1905;52.482;9.802;2023-04-21T08:05:31;101202.47;;;12.41;75.21
3780;BME280;1905;52.482;9.802;2023-04-21T08:08:04;101204.66;;;12.51;75.26
3780;BME280;1905;52.482;9.802;2023-04-21T08:10:32;101202.16;;;12.69;75.70
3780;BME280;1905;52.482;9.802;2023-04-21T08:13:01;101200.88;;;12.77;75.69
3780;BME280;1905;52.482;9.802;2023-04-21T08:15:32;101201.31;;;12.87;75.01
3780;BME280;1905;52.482;9.802;2023-04-21T08:17:59;101205.28;;;12.97;74.89
3780;BME280;1905;52.482;9.802;2023-04-21T08:20:28;101191.50;;;13.09;73.96
3780;BME280;1905;52.482;9.802;2023-04-21T08:22:56;101205.78;;;13.25;73.56
3780;BME280;1905;52.482;9.802;2023-04-21T08:25:24;101191.16;;;13.35;73.15
3780;BME280;1905;52.482;9.802;2023-04-21T08:27:51;101199.22;;;13.51;73.60
3780;BME280;1905;52.482;9.802;2023-04-21T08:30:20;101196.09;;;13.61;72.16
3780;BME280;1905;52.482;9.802;2023-04-21T08:32:48;101193.63;;;13.76;71.65
3780;BME280;1905;52.482;9.802;2023-04-21T08:35:15;101186.00;;;13.87;71.92
3780;BME280;1905;52.482;9.802;2023-04-21T08:37:43;101188.69;;;14.04;71.31
3780;BME280;1905;52.482;9.802;2023-04-21T08:40:11;101186.06;;;14.21;72.16
3780;BME280;1905;52.482;9.802;2023-04-21T08:42:39;101175.53;;;14.37;71.27
3780;BME280;1905;52.482;9.802;2023-04-21T08:45:08;101182.78;;;14.50;69.28
3780;BME280;1905;52.482;9.802;2023-04-21T08:47:39;101185.59;;;14.64;70.90
3780;BME280;1905;52.482;9.802;2023-04-21T08:50:11;101181.34;;;14.77;69.51
3780;BME280;1905;52.482;9.802;2023-04-21T08:52:39;101178.81;;;14.92;68.03
3780;BME280;1905;52.482;9.802;2023-04-21T08:55:08;101171.78;;;15.06;68.23
3780;BME280;1905;52.482;9.802;2023-04-21T08:57:38;101178.09;;;15.21;67.49
3780;BME280;1905;52.482;9.802;2023-04-21T09:00:07;101172.88;;;15.35;66.75
3780;BME280;1905;52.482;9.802;2023-04-21T09:02:55;101164.28;;;15.45;68.25
3780;BME280;1905;52.482;9.802;2023-04-21T09:05:27;101169.28;;;15.67;68.08
3780;BME280;1905;52.482;9.802;2023-04-21T09:08:06;101172.19;;;15.78;66.98
3780;BME280;1905;52.482;9.802;2023-04-21T09:10:41;101176.03;;;15.88;66.61
3780;BME280;1905;52.482;9.802;2023-04-21T09:13:09;101172.69;;;16.00;67.25
3780;BME280;1905;52.482;9.802;2023-04-21T09:15:38;101164.41;;;16.05;66.04
3780;BME280;1905;52.482;9.802;2023-04-21T09:18:12;101169.22;;;16.14;65.53
3780;BME280;1905;52.482;9.802;2023-04-21T09:20:40;101169.50;;;16.24;65.10
3780;BME280;1905;52.482;9.802;2023-04-21T09:23:09;101162.78;;;16.32;66.16
3780;BME280;1905;52.482;9.802;2023-04-21T09:25:38;101164.03;;;16.41;65.20
3780;BME280;1905;52.482;9.802;2023-04-21T09:28:06;101161.78;;;16.49;64.21
3780;BME280;1905;52.482;9.802;2023-04-21T09:30:34;101169.59;;;16.52;62.91
3780;BME280;1905;52.482;9.802;2023-04-21T09:33:02;101154.38;;;16.54;62.43
3780;BME280;1905;52.482;9.802;2023-04-21T09:35:47;101165.25;;;16.65;63.00
3780;BME280;1905;52.482;9.802;2023-04-21T09:38:14;101166.59;;;16.72;62.69
3780;BME280;1905;52.482;9.802;2023-04-21T09:40:42;101161.44;;;16.69;61.91
3780;BME280;1905;52.482;9.802;2023-04-21T09:43:09;101157.81;;;16.70;61.67
3780;BME280;1905;52.482;9.802;2023-04-21T09:45:37;101154.78;;;16.76;60.16
3780;BME280;1905;52.482;9.802;2023-04-21T09:48:08;101143.81;;;16.81;61.73
3780;BME280;1905;52.482;9.802;2023-04-21T09:50:36;101147.06;;;16.86;61.88
3780;BME280;1905;52.482;9.802;2023-04-21T09:53:27;101140.69;;;16.88;61.16
3780;BME280;1905;52.482;9.802;2023-04-21T09:55:55;101151.66;;;16.98;60.97
3780;BME280;1905;52.482;9.802;2023-04-21T09:58:26;101143.47;;;17.01;59.76
3780;BME280;1905;52.482;9.802;2023-04-21T10:00:56;101141.44;;;17.04;59.22
3780;BME280;1905;52.482;9.802;2023-04-21T10:03:26;101139.72;;;17.03;59.21
3780;BME280;1905;52.482;9.802;2023-04-21T10:05:54;101140.78;;;17.01;58.53
3780;BME280;1905;52.482;9.802;2023-04-21T10:08:22;101119.69;;;17.10;58.50
3780;BME280;1905;52.482;9.802;2023-04-21T10:10:50;101131.13;;;17.12;59.19
3780;BME280;1905;52.482;9.802;2023-04-21T10:13:20;101124.47;;;17.19;59.05
3780;BME280;1905;52.482;9.802;2023-04-21T10:16:00;101127.56;;;17.26;58.42
3780;BME280;1905;52.482;9.802;2023-04-21T10:18:28;101128.78;;;17.35;57.48
3780;BME280;1905;52.482;9.802;2023-04-21T10:20:56;101123.25;;;17.38;58.23
3780;BME280;1905;52.482;9.802;2023-04-21T10:23:26;101116.78;;;17.42;57.14
3780;BME280;1905;52.482;9.802;2023-04-21T10:26:00;101123.75;;;17.44;56.93
3780;BME280;1905;52.482;9.802;2023-04-21T10:28:46;101110.06;;;17.49;56.30
3780;BME280;1905;52.482;9.802;2023-04-21T10:31:18;101110.66;;;17.54;55.51
3780;BME280;1905;52.482;9.802;2023-04-21T10:34:12;101111.81;;;17.50;56.42
3780;BME280;1905;52.482;9.802;2023-04-21T10:36:48;101102.72;;;17.52;56.64
3780;BME280;1905;52.482;9.802;2023-04-21T10:39:27;101091.97;;;17.54;57.55
3780;BME280;1905;52.482;9.802;2023-04-21T10:41:57;101100.31;;;17.62;56.57
3780;BME280;1905;52.482;9.802;2023-04-21T10:44:27;101094.38;;;17.71;56.17
3780;BME280;1905;52.482;9.802;2023-04-21T10:46:57;101094.59;;;17.68;57.76
3780;BME280;1905;52.482;9.802;2023-04-21T10:49:26;101082.16;;;17.67;57.16
3780;BME280;1905;52.482;9.802;2023-04-21T10:52:05;101080.03;;;17.72;56.34
3780;BME280;1905;52.482;9.802;2023-04-21T10:54:41;101072.03;;;17.72;56.56
3780;BME280;1905;52.482;9.802;2023-04-21T10:57:14;101074.50;;;17.75;56.84
3780;BME280;1905;52.482;9.802;2023-04-21T10:59:43;101068.34;;;17.87;55.75
3780;BME280;1905;52.482;9.802;2023-04-21T11:02:12;101068.13;;;17.90;52.92
3780;BME280;1905;52.482;9.802;2023-04-21T11:04:40;101066.41;;;17.89;54.47
3780;BME280;1905;52.482;9.802;2023-04-21T11:07:15;101068.16;;;18.03;51.29
3780;BME280;1905;52.482;9.802;2023-04-21T11:09:46;101051.91;;;18.06;51.00
3780;BME280;1905;52.482;9.802;2023-04-21T11:12:16;101045.69;;;18.05;53.31
3780;BME280;1905;52.482;9.802;2023-04-21T11:14:45;101045.06;;;18.14;52.82
3780;BME280;1905;52.482;9.802;2023-04-21T11:17:15;101047.63;;;18.16;50.59
3780;BME280;1905;52.482;9.802;2023-04-21T11:19:44;101040.47;;;18.16;52.44
3780;BME280;1905;52.482;9.802;2023-04-21T11:22:12;101031.28;;;18.20;53.06
3780;BME280;1905;52.482;9.802;2023-04-21T11:24:43;101045.19;;;18.25;53.11
3780;BME280;1905;52.482;9.802;2023-04-21T11:27:10;101038.00;;;18.38;49.73
3780;BME280;1905;52.482;9.802;2023-04-21T11:29:41;101035.88;;;18.43;47.39
3780;BME280;1905;52.482;9.802;2023-04-21T11:32:08;101038.31;;;18.47;48.29
3780;BME280;1905;52.482;9.802;2023-04-21T11:34:36;101028.56;;;18.45;48.38
3780;BME280;1905;52.482;9.802;2023-04-21T11:37:06;101030.00;;;18.38;51.02
3780;BME280;1905;52.482;9.802;2023-04-21T11:39:34;101011.47;;;18.48;48.97
3780;BME280;1905;52.482;9.802;2023-04-21T11:42:02;101012.13;;;18.52;48.61
3780;BME280;1905;52.482;9.802;2023-04-21T11:44:31;101008.28;;;18.56;47.34
3780;BME280;1905;52.482;9.802;2023-04-21T11:47:11;101006.88;;;18.63;48.16
3780;BME280;1905;52.482;9.802;2023-04-21T11:49:43;101002.25;;;18.65;47.79
3780;BME280;1905;52.482;9.802;2023-04-21T11:52:19;101005.28;;;18.60;47.41
3780;BME280;1905;52.482;9.802;2023-04-21T11:54:46;101006.22;;;18.72;46.90
3780;BME280;1905;52.482;9.802;2023-04-21T11:57:17;101003.09;;;18.78;45.68
3780;BME280;1905;52.482;9.802;2023-04-21T11:59:45;100999.44;;;18.79;48.24
3780;BME280;1905;52.482;9.802;2023-04-21T12:02:20;100995.38;;;18.86;46.60
3780;BME280;1905;52.482;9.802;2023-04-21T12:04:59;100993.66;;;18.85;48.62
3780;BME280;1905;52.482;9.802;2023-04-21T12:07:29;100995.13;;;18.89;44.97
3780;BME280;1905;52.482;9.802;2023-04-21T12:09:57;100986.25;;;18.88;46.97
3780;BME280;1905;52.482;9.802;2023-04-21T12:12:25;100989.53;;;18.92;45.57
3780;BME280;1905;52.482;9.802;2023-04-21T12:14:53;100983.97;;;18.95;45.72
3780;BME280;1905;52.482;9.802;2023-04-21T12:17:22;100985.34;;;19.00;44.74
3780;BME280;1905;52.482;9.802;2023-04-21T12:19:50;100993.78;;;19.07;45.78
3780;BME280;1905;52.482;9.802;2023-04-21T12:22:17;100992.28;;;19.03;46.61
3780;BME280;1905;52.482;9.802;2023-04-21T12:24:45;100977.50;;;19.10;44.47
3780;BME280;1905;52.482;9.802;2023-04-21T12:27:13;100981.88;;;19.11;45.56
3780;BME280;1905;52.482;9.802;2023-04-21T12:29:40;100972.88;;;19.12;45.18
3780;BME280;1905;52.482;9.802;2023-04-21T12:32:08;100985.81;;;19.18;45.03
3780;BME280;1905;52.482;9.802;2023-04-21T12:34:37;100971.06;;;19.13;45.94
3780;BME280;1905;52.482;9.802;2023-04-21T12:37:06;100976.19;;;19.16;46.47
3780;BME280;1905;52.482;9.802;2023-04-21T12:39:34;100969.53;;;19.21;46.32
3780;BME280;1905;52.482;9.802;2023-04-21T12:42:02;100969.03;;;19.27;48.02
3780;BME280;1905;52.482;9.802;2023-04-21T12:44:29;100962.72;;;19.28;46.12
3780;BME280;1905;52.482;9.802;2023-04-21T12:46:57;100948.88;;;19.34;46.91
3780;BME280;1905;52.482;9.802;2023-04-21T12:49:24;100963.00;;;19.36;45.83
3780;BME280;1905;52.482;9.802;2023-04-21T12:51:53;100962.13;;;19.36;44.79
3780;BME280;1905;52.482;9.802;2023-04-21T12:54:21;100968.16;;;19.39;47.98
3780;BME280;1905;52.482;9.802;2023-04-21T12:56:48;100976.47;;;19.47;45.60
3780;BME280;1905;52.482;9.802;2023-04-21T12:59:16;100961.50;;;19.45;48.74
3780;BME280;1905;52.482;9.802;2023-04-21T13:01:46;100962.34;;;19.45;49.72
3780;BME280;1905;52.482;9.802;2023-04-21T13:04:14;100962.94;;;19.49;46.92
3780;BME280;1905;52.482;9.802;2023-04-21T13:06:42;100960.41;;;19.47;49.73
3780;BME280;1905;52.482;9.802;2023-04-21T13:09:11;100949.09;;;19.55;48.38
3780;BME280;1905;52.482;9.802;2023-04-21T13:11:38;100964.06;;;19.57;50.86
3780;BME280;1905;52.482;9.802;2023-04-21T13:14:06;100944.50;;;19.68;46.15
3780;BME280;1905;52.482;9.802;2023-04-21T13:16:34;100939.53;;;19.75;45.60
3780;BME280;1905;52.482;9.802;2023-04-21T13:19:01;100932.94;;;19.79;43.53
3780;BME280;1905;52.482;9.802;2023-04-21T13:21:29;100934.66;;;19.80;44.58
3780;BME280;1905;52.482;9.802;2023-04-21T13:23:57;100930.78;;;19.84;44.78
3780;BME280;1905;52.482;9.802;2023-04-21T13:26:26;100941.22;;;19.87;45.37